sensor_id;sensor_type;location;lat;lon;timestamp;P1;durP1;ratioP1;P2;durP2;ratioP2
38222;SDS011;24024;51.186;6.458;2023-09-30T00:00:29;11.48;;;3.83;;
38222;SDS011;24024;51.186;6.458;2023-09-30T00:02:55;10.32;;;3.58;;
38222;SDS011;24024;51.186;6.458;2023-09-30T00:05:22;7.85;;;3.33;;
38222;SDS011;24024;51.186;6.458;2023-09-30T00:07:52;10.32;;;3.30;;
38222;SDS011;24024;51.186;6.458;2023-09-30T00:10:21;12.18;;;3.95;;
38222;SDS011;24024;51.186;6.458;2023-09-30T00:12:48;10.10;;;3.92;;
38222;SDS011;24024;51.186;6.458;2023-09-30T00:15:15;11.27;;;4.13;;
38222;SDS011;24024;51.186;6.458;2023-09-30T00:17:41;11.05;;;3.97;;
38222;SDS011;24024;51.186;6.458;2023-09-30T00:20:09;12.23;;;4.75;;
38222;SDS011;24024;51.186;6.458;2023-09-30T00:22:36;10.50;;;4.03;;
38222;SDS011;24024;51.186;6.458;2023-09-30T00:25:02;12.25;;;3.85;;
38222;SDS011;24024;51.186;6.458;2023-09-30T00:27:32;8.77;;;3.50;;
38222;SDS011;24024;51.186;6.458;2023-09-30T00:29:59;10.00;;;3.70;;
38222;SDS011;24024;51.186;6.458;2023-09-30T00:32:26;10.45;;;3.60;;
38222;SDS011;24024;51.186;6.458;2023-09-30T00:34:52;8.80;;;3.63;;
38222;SDS011;24024;51.186;6.458;2023-09-30T00:37:20;10.35;;;3.65;;
38222;SDS011;24024;51.186;6.458;2023-09-30T00:39:47;9.73;;;3.60;;
38222;SDS011;24024;51.186;6.458;2023-09-30T00:42:13;16.73;;;6.25;;
38222;SDS011;24024;51.186;6.458;2023-09-30T00:44:42;22.45;;;9.35;;
38222;SDS011;24024;51.186;6.458;2023-09-30T00:47:12;20.10;;;9.63;;
38222;SDS011;24024;51.186;6.458;2023-09-30T00:49:41;26.48;;;12.75;;
38222;SDS011;24024;51.186;6.458;2023-09-30T00:52:10;21.15;;;9.85;;
38222;SDS011;24024;51.186;6.458;2023-09-30T00:54:37;17.10;;;8.38;;
38222;SDS011;24024;51.186;6.458;2023-09-30T00:57:06;20.77;;;8.80;;
38222;SDS011;24024;51.186;6.458;2023-09-30T00:59:33;18.23;;;8.48;;
38222;SDS011;24024;51.186;6.458;2023-09-30T01:02:00;18.77;;;9.25;;
38222;SDS011;24024;51.186;6.458;2023-09-30T01:04:31;22.40;;;9.17;;
38222;SDS011;24024;51.186;6.458;2023-09-30T01:06:58;16.90;;;8.25;;
38222;SDS011;24024;51.186;6.458;2023-09-30T01:09:25;14.45;;;6.60;;
38222;SDS011;24024;51.186;6.458;2023-09-30T01:11:54;12.70;;;6.18;;
38222;SDS011;24024;51.186;6.458;2023-09-30T01:14:25;15.32;;;6.63;;
38222;SDS011;24024;51.186;6.458;2023-09-30T01:16:58;13.30;;;6.25;;
38222;SDS011;24024;51.186;6.458;2023-09-30T01:19:28;11.48;;;5.70;;
38222;SDS011;24024;51.186;6.458;2023-09-30T01:21:56;15.75;;;5.85;;
38222;SDS011;24024;51.186;6.458;2023-09-30T01:24:26;11.95;;;6.13;;
38222;SDS011;24024;51.186;6.458;2023-09-30T01:26:55;15.05;;;6.20;;
38222;SDS011;24024;51.186;6.458;2023-09-30T01:29:22;12.80;;;5.53;;
38222;SDS011;24024;51.186;6.458;2023-09-30T01:31:51;11.38;;;4.82;;
38222;SDS011;24024;51.186;6.458;2023-09-30T01:34:20;11.65;;;4.78;;
38222;SDS011;24024;51.186;6.458;2023-09-30T01:36:46;14.88;;;6.05;;
38222;SDS011;24024;51.186;6.458;2023-09-30T01:39:15;17.90;;;6.65;;
38222;SDS011;24024;51.186;6.458;2023-09-30T01:41:45;14.88;;;6.72;;
38222;SDS011;24024;51.186;6.458;2023-09-30T01:44:14;12.98;;;5.85;;
38222;SDS011;24024;51.186;6.458;2023-09-30T01:46:41;13.35;;;5.72;;
38222;SDS011;24024;51.186;6.458;2023-09-30T01:49:10;15.73;;;6.78;;
38222;SDS011;24024;51.186;6.458;2023-09-30T01:51:36;17.40;;;6.72;;
38222;SDS011;24024;51.186;6.458;2023-09-30T01:54:03;16.20;;;6.78;;
38222;SDS011;24024;51.186;6.458;2023-09-30T01:56:30;18.17;;;6.95;;
38222;SDS011;24024;51.186;6.458;2023-09-30T01:58:58;19.35;;;6.93;;
38222;SDS011;24024;51.186;6.458;2023-09-30T02:01:26;14.20;;;6.13;;
38222;SDS011;24024;51.186;6.458;2023-09-30T02:03:52;18.67;;;6.72;;
38222;SDS011;24024;51.186;6.458;2023-09-30T02:06:22;11.85;;;5.68;;
38222;SDS011;24024;51.186;6.458;2023-09-30T02:08:49;12.10;;;5.13;;
38222;SDS011;24024;51.186;6.458;2023-09-30T02:11:15;11.15;;;5.28;;
38222;SDS011;24024;51.186;6.458;2023-09-30T02:13:45;14.60;;;5.88;;
38222;SDS011;24024;51.186;6.458;2023-09-30T02:16:12;12.40;;;5.80;;
38222;SDS011;24024;51.186;6.458;2023-09-30T02:18:45;12.73;;;5.80;;
38222;SDS011;24024;51.186;6.458;2023-09-30T02:21:12;10.93;;;5.57;;
38222;SDS011;24024;51.186;6.458;2023-09-30T02:23:38;10.68;;;5.60;;
38222;SDS011;24024;51.186;6.458;2023-09-30T02:26:05;11.63;;;5.13;;
38222;SDS011;24024;51.186;6.458;2023-09-30T02:28:32;11.73;;;5.32;;
38222;SDS011;24024;51.186;6.458;2023-09-30T02:31:00;11.70;;;5.53;;
38222;SDS011;24024;51.186;6.458;2023-09-30T02:33:27;12.20;;;5.50;;
38222;SDS011;24024;51.186;6.458;2023-09-30T02:35:54;14.57;;;7.18;;
38222;SDS011;24024;51.186;6.458;2023-09-30T02:38:20;14.48;;;6.55;;
38222;SDS011;24024;51.186;6.458;2023-09-30T02:40:47;13.82;;;7.78;;
38222;SDS011;24024;51.186;6.458;2023-09-30T02:43:16;13.98;;;7.32;;
38222;SDS011;24024;51.186;6.458;2023-09-30T02:45:42;15.50;;;7.15;;
38222;SDS011;24024;51.186;6.458;2023-09-30T02:48:10;14.63;;;7.35;;
38222;SDS011;24024;51.186;6.458;2023-09-30T02:50:37;14.75;;;7.13;;
38222;SDS011;24024;51.186;6.458;2023-09-30T02:53:05;16.98;;;8.20;;
38222;SDS011;24024;51.186;6.458;2023-09-30T02:55:34;18.17;;;9.70;;
38222;SDS011;24024;51.186;6.458;2023-09-30T02:58:03;18.50;;;9.88;;
38222;SDS011;24024;51.186;6.458;2023-09-30T03:00:34;16.42;;;8.63;;
38222;SDS011;24024;51.186;6.458;2023-09-30T03:03:02;17.00;;;9.85;;
38222;SDS011;24024;51.186;6.458;2023-09-30T03:05:29;19.73;;;9.93;;
38222;SDS011;24024;51.186;6.458;2023-09-30T03:07:59;18.70;;;9.00;;
38222;SDS011;24024;51.186;6.458;2023-09-30T03:10:27;17.15;;;8.45;;
38222;SDS011;24024;51.186;6.458;2023-09-30T03:12:59;13.80;;;7.82;;
38222;SDS011;24024;51.186;6.458;2023-09-30T03:15:31;15.68;;;7.60;;
38222;SDS011;24024;51.186;6.458;2023-09-30T03:17:59;13.50;;;6.32;;
38222;SDS011;24024;51.186;6.458;2023-09-30T03:20:26;13.68;;;6.40;;
38222;SDS011;24024;51.186;6.458;2023-09-30T03:22:56;11.85;;;6.25;;
38222;SDS011;24024;51.186;6.458;2023-09-30T03:25:23;13.70;;;6.30;;
38222;SDS011;24024;51.186;6.458;2023-09-30T03:27:50;12.57;;;6.43;;
38222;SDS011;24024;51.186;6.458;2023-09-30T03:30:17;11.55;;;6.30;;
38222;SDS011;24024;51.186;6.458;2023-09-30T03:32:46;12.52;;;7.07;;
38222;SDS011;24024;51.186;6.458;2023-09-30T03:35:13;12.80;;;6.38;;
38222;SDS011;24024;51.186;6.458;2023-09-30T03:37:46;12.05;;;5.80;;
38222;SDS011;24024;51.186;6.458;2023-09-30T03:40:14;10.32;;;5.78;;
38222;SDS011;24024;51.186;6.458;2023-09-30T03:42:46;9.90;;;5.53;;
38222;SDS011;24024;51.186;6.458;2023-09-30T03:45:16;9.57;;;5.15;;
38222;SDS011;24024;51.186;6.458;2023-09-30T03:47:43;11.52;;;6.28;;
38222;SDS011;24024;51.186;6.458;2023-09-30T03:50:10;13.25;;;7.00;;
38222;SDS011;24024;51.186;6.458;2023-09-30T03:52:41;13.40;;;7.40;;
38222;SDS011;24024;51.186;6.458;2023-09-30T03:57:47;13.48;;;6.57;;
38222;SDS011;24024;51.186;6.458;2023-09-30T04:00:15;15.10;;;6.93;;
38222;SDS011;24024;51.186;6.458;2023-09-30T04:02:45;13.13;;;7.18;;
38222;SDS011;24024;51.186;6.458;2023-09-30T04:05:16;11.70;;;6.40;;
38222;SDS011;24024;51.186;6.458;2023-09-30T04:07:43;13.60;;;7.40;;
38222;SDS011;24024;51.186;6.458;2023-09-30T04:10:10;10.48;;;6.10;;
38222;SDS011;24024;51.186;6.458;2023-09-30T04:12:37;15.27;;;7.40;;
38222;SDS011;24024;51.186;6.458;2023-09-30T04:15:06;12.85;;;8.10;;
38222;SDS011;24024;51.186;6.458;2023-09-30T04:17:35;14.48;;;7.88;;
38222;SDS011;24024;51.186;6.458;2023-09-30T04:20:05;11.77;;;7.57;;
38222;SDS011;24024;51.186;6.458;2023-09-30T04:22:36;14.80;;;8.10;;
38222;SDS011;24024;51.186;6.458;2023-09-30T04:25:04;13.40;;;7.88;;
38222;SDS011;24024;51.186;6.458;2023-09-30T04:27:34;13.50;;;7.80;;
38222;SDS011;24024;51.186;6.458;2023-09-30T04:30:04;14.18;;;7.95;;
38222;SDS011;24024;51.186;6.458;2023-09-30T04:32:38;13.70;;;7.35;;
38222;SDS011;24024;51.186;6.458;2023-09-30T04:35:05;14.48;;;8.77;;
38222;SDS011;24024;51.186;6.458;2023-09-30T04:37:34;14.07;;;8.35;;
38222;SDS011;24024;51.186;6.458;2023-09-30T04:40:05;11.52;;;7.05;;
38222;SDS011;24024;51.186;6.458;2023-09-30T04:42:42;17.20;;;10.75;;
38222;SDS011;24024;51.186;6.458;2023-09-30T04:45:10;14.77;;;9.98;;
38222;SDS011;24024;51.186;6.458;2023-09-30T04:47:38;18.10;;;11.35;;
38222;SDS011;24024;51.186;6.458;2023-09-30T04:50:08;14.70;;;9.30;;
38222;SDS011;24024;51.186;6.458;2023-09-30T04:52:35;13.13;;;8.95;;
38222;SDS011;24024;51.186;6.458;2023-09-30T04:55:02;15.13;;;9.60;;
38222;SDS011;24024;51.186;6.458;2023-09-30T04:57:31;15.80;;;9.48;;
38222;SDS011;24024;51.186;6.458;2023-09-30T04:59:58;17.85;;;10.07;;
38222;SDS011;24024;51.186;6.458;2023-09-30T05:02:25;13.75;;;8.65;;
38222;SDS011;24024;51.186;6.458;2023-09-30T05:04:53;14.15;;;8.88;;
38222;SDS011;24024;51.186;6.458;2023-09-30T05:07:20;16.90;;;10.10;;
38222;SDS011;24024;51.186;6.458;2023-09-30T05:09:50;13.55;;;8.35;;
38222;SDS011;24024;51.186;6.458;2023-09-30T05:12:17;15.63;;;9.25;;
38222;SDS011;24024;51.186;6.458;2023-09-30T05:14:43;17.00;;;9.82;;
38222;SDS011;24024;51.186;6.458;2023-09-30T05:17:10;15.88;;;9.88;;
38222;SDS011;24024;51.186;6.458;2023-09-30T05:19:38;21.40;;;12.60;;
38222;SDS011;24024;51.186;6.458;2023-09-30T05:22:05;16.05;;;10.32;;
38222;SDS011;24024;51.186;6.458;2023-09-30T05:24:34;14.35;;;9.10;;
38222;SDS011;24024;51.186;6.458;2023-09-30T05:27:01;16.15;;;10.07;;
38222;SDS011;24024;51.186;6.458;2023-09-30T05:29:30;15.10;;;9.60;;
38222;SDS011;24024;51.186;6.458;2023-09-30T05:31:59;17.88;;;10.52;;
38222;SDS011;24024;51.186;6.458;2023-09-30T05:34:26;15.15;;;10.23;;
38222;SDS011;24024;51.186;6.458;2023-09-30T05:36:55;14.73;;;9.82;;
38222;SDS011;24024;51.186;6.458;2023-09-30T05:39:22;15.23;;;10.13;;
38222;SDS011;24024;51.186;6.458;2023-09-30T05:41:49;17.05;;;10.02;;
38222;SDS011;24024;51.186;6.458;2023-09-30T05:44:16;15.82;;;9.90;;
38222;SDS011;24024;51.186;6.458;2023-09-30T05:46:43;15.05;;;10.07;;
38222;SDS011;24024;51.186;6.458;2023-09-30T05:49:11;14.52;;;10.15;;
38222;SDS011;24024;51.186;6.458;2023-09-30T05:51:40;16.45;;;10.73;;
38222;SDS011;24024;51.186;6.458;2023-09-30T05:54:07;15.60;;;9.90;;
38222;SDS011;24024;51.186;6.458;2023-09-30T05:56:36;16.92;;;9.93;;
38222;SDS011;24024;51.186;6.458;2023-09-30T05:59:04;17.88;;;11.13;;
38222;SDS011;24024;51.186;6.458;2023-09-30T06:01:31;19.10;;;11.55;;
38222;SDS011;24024;51.186;6.458;2023-09-30T06:04:00;20.30;;;11.57;;
38222;SDS011;24024;51.186;6.458;2023-09-30T06:06:27;17.52;;;10.45;;
38222;SDS011;24024;51.186;6.458;2023-09-30T06:09:00;18.05;;;11.02;;
38222;SDS011;24024;51.186;6.458;2023-09-30T06:11:27;18.38;;;11.70;;
38222;SDS011;24024;51.186;6.458;2023-09-30T06:13:59;18.17;;;11.93;;
38222;SDS011;24024;51.186;6.458;2023-09-30T06:16:27;20.75;;;13.32;;
38222;SDS011;24024;51.186;6.458;2023-09-30T06:18:54;20.35;;;13.52;;
38222;SDS011;24024;51.186;6.458;2023-09-30T06:21:26;22.63;;;12.65;;
38222;SDS011;24024;51.186;6.458;2023-09-30T06:23:55;22.65;;;13.25;;
38222;SDS011;24024;51.186;6.458;2023-09-30T06:26:24;20.73;;;12.63;;
38222;SDS011;24024;51.186;6.458;2023-09-30T06:28:55;16.42;;;10.82;;
38222;SDS011;24024;51.186;6.458;2023-09-30T06:31:23;17.17;;;11.68;;
38222;SDS011;24024;51.186;6.458;2023-09-30T06:33:50;17.80;;;11.63;;
38222;SDS011;24024;51.186;6.458;2023-09-30T06:36:20;20.45;;;11.93;;
38222;SDS011;24024;51.186;6.458;2023-09-30T06:38:47;19.30;;;12.30;;
38222;SDS011;24024;51.186;6.458;2023-09-30T06:41:16;19.23;;;12.05;;
38222;SDS011;24024;51.186;6.458;2023-09-30T06:43:46;15.65;;;10.98;;
38222;SDS011;24024;51.186;6.458;2023-09-30T06:46:13;15.95;;;10.18;;
38222;SDS011;24024;51.186;6.458;2023-09-30T06:48:40;22.70;;;12.88;;
38222;SDS011;24024;51.186;6.458;2023-09-30T06:51:07;19.98;;;13.93;;
38222;SDS011;24024;51.186;6.458;2023-09-30T06:53:34;21.15;;;12.77;;
38222;SDS011;24024;51.186;6.458;2023-09-30T06:56:04;16.67;;;11.43;;
38222;SDS011;24024;51.186;6.458;2023-09-30T06:58:31;21.00;;;13.10;;
38222;SDS011;24024;51.186;6.458;2023-09-30T07:00:58;19.95;;;13.30;;
38222;SDS011;24024;51.186;6.458;2023-09-30T07:03:25;21.70;;;13.93;;
38222;SDS011;24024;51.186;6.458;2023-09-30T07:05:52;18.67;;;11.75;;
38222;SDS011;24024;51.186;6.458;2023-09-30T07:08:20;20.42;;;11.75;;
38222;SDS011;24024;51.186;6.458;2023-09-30T07:10:50;21.35;;;13.23;;
38222;SDS011;24024;51.186;6.458;2023-09-30T07:13:18;22.77;;;14.35;;
38222;SDS011;24024;51.186;6.458;2023-09-30T07:15:45;21.23;;;13.30;;
38222;SDS011;24024;51.186;6.458;2023-09-30T07:18:12;27.73;;;14.65;;
38222;SDS011;24024;51.186;6.458;2023-09-30T07:20:39;27.55;;;14.13;;
38222;SDS011;24024;51.186;6.458;2023-09-30T07:23:06;24.48;;;14.30;;
38222;SDS011;24024;51.186;6.458;2023-09-30T07:25:45;23.35;;;12.98;;
38222;SDS011;24024;51.186;6.458;2023-09-30T07:28:12;24.55;;;13.20;;
38222;SDS011;24024;51.186;6.458;2023-09-30T07:30:39;21.50;;;11.50;;
38222;SDS011;24024;51.186;6.458;2023-09-30T07:33:06;19.00;;;12.07;;
38222;SDS011;24024;51.186;6.458;2023-09-30T07:35:34;19.73;;;12.07;;
38222;SDS011;24024;51.186;6.458;2023-09-30T07:38:01;18.55;;;12.18;;
38222;SDS011;24024;51.186;6.458;2023-09-30T07:40:30;21.17;;;12.60;;
38222;SDS011;24024;51.186;6.458;2023-09-30T07:42:57;17.27;;;11.20;;
38222;SDS011;24024;51.186;6.458;2023-09-30T07:45:24;19.80;;;11.35;;
38222;SDS011;24024;51.186;6.458;2023-09-30T07:47:51;21.75;;;11.90;;
38222;SDS011;24024;51.186;6.458;2023-09-30T07:50:18;20.88;;;12.27;;
38222;SDS011;24024;51.186;6.458;2023-09-30T07:52:45;20.00;;;11.07;;
38222;SDS011;24024;51.186;6.458;2023-09-30T07:55:12;14.82;;;9.70;;
38222;SDS011;24024;51.186;6.458;2023-09-30T07:57:40;19.60;;;10.57;;
38222;SDS011;24024;51.186;6.458;2023-09-30T08:00:09;19.95;;;10.70;;
38222;SDS011;24024;51.186;6.458;2023-09-30T08:02:41;16.23;;;9.45;;
38222;SDS011;24024;51.186;6.458;2023-09-30T08:05:08;14.63;;;9.25;;
38222;SDS011;24024;51.186;6.458;2023-09-30T08:07:36;13.68;;;8.52;;
38222;SDS011;24024;51.186;6.458;2023-09-30T08:10:03;14.45;;;8.82;;
38222;SDS011;24024;51.186;6.458;2023-09-30T08:12:32;19.58;;;9.95;;
38222;SDS011;24024;51.186;6.458;2023-09-30T08:15:04;14.60;;;8.98;;
38222;SDS011;24024;51.186;6.458;2023-09-30T08:17:32;13.55;;;8.35;;
38222;SDS011;24024;51.186;6.458;2023-09-30T08:20:00;16.35;;;8.95;;
38222;SDS011;24024;51.186;6.458;2023-09-30T08:22:30;17.27;;;9.50;;
38222;SDS011;24024;51.186;6.458;2023-09-30T08:24:59;17.83;;;9.32;;
38222;SDS011;24024;51.186;6.458;2023-09-30T08:27:27;19.52;;;10.40;;
38222;SDS011;24024;51.186;6.458;2023-09-30T08:29:53;11.98;;;7.45;;
38222;SDS011;24024;51.186;6.458;2023-09-30T08:32:20;17.75;;;9.27;;
38222;SDS011;24024;51.186;6.458;2023-09-30T08:34:47;16.15;;;8.90;;
38222;SDS011;24024;51.186;6.458;2023-09-30T08:37:14;14.23;;;9.15;;
38222;SDS011;24024;51.186;6.458;2023-09-30T08:39:43;16.58;;;8.38;;
38222;SDS011;24024;51.186;6.458;2023-09-30T08:42:10;14.60;;;8.27;;
38222;SDS011;24024;51.186;6.458;2023-09-30T08:44:38;15.27;;;7.85;;
38222;SDS011;24024;51.186;6.458;2023-09-30T08:47:08;14.77;;;7.63;;
38222;SDS011;24024;51.186;6.458;2023-09-30T08:49:40;14.93;;;7.25;;
38222;SDS011;24024;51.186;6.458;2023-09-30T08:52:12;12.32;;;7.47;;
38222;SDS011;24024;51.186;6.458;2023-09-30T08:54:40;17.98;;;9.23;;
38222;SDS011;24024;51.186;6.458;2023-09-30T08:57:08;15.98;;;8.85;;
38222;SDS011;24024;51.186;6.458;2023-09-30T08:59:38;16.00;;;8.43;;
38222;SDS011;24024;51.186;6.458;2023-09-30T09:02:08;17.63;;;9.10;;
38222;SDS011;24024;51.186;6.458;2023-09-30T09:04:41;18.55;;;8.45;;
38222;SDS011;24024;51.186;6.458;2023-09-30T09:07:09;14.40;;;8.18;;
38222;SDS011;24024;51.186;6.458;2023-09-30T09:09:36;18.95;;;9.90;;
38222;SDS011;24024;51.186;6.458;2023-09-30T09:12:03;18.48;;;8.85;;
38222;SDS011;24024;51.186;6.458;2023-09-30T09:14:40;17.63;;;7.70;;
38222;SDS011;24024;51.186;6.458;2023-09-30T09:17:10;13.18;;;6.75;;
38222;SDS011;24024;51.186;6.458;2023-09-30T09:19:37;14.60;;;7.35;;
38222;SDS011;24024;51.186;6.458;2023-09-30T09:22:04;16.92;;;8.35;;
38222;SDS011;24024;51.186;6.458;2023-09-30T09:24:34;16.02;;;7.95;;
38222;SDS011;24024;51.186;6.458;2023-09-30T09:27:09;11.53;;;5.87;;
38222;SDS011;24024;51.186;6.458;2023-09-30T09:29:43;12.00;;;5.90;;
38222;SDS011;24024;51.186;6.458;2023-09-30T09:32:16;15.00;;;6.82;;
38222;SDS011;24024;51.186;6.458;2023-09-30T09:34:45;15.38;;;6.50;;
38222;SDS011;24024;51.186;6.458;2023-09-30T09:37:26;14.02;;;6.47;;
38222;SDS011;24024;51.186;6.458;2023-09-30T09:39:54;12.45;;;5.95;;
38222;SDS011;24024;51.186;6.458;2023-09-30T09:42:27;13.10;;;6.13;;
38222;SDS011;24024;51.186;6.458;2023-09-30T09:45:03;13.23;;;5.72;;
38222;SDS011;24024;51.186;6.458;2023-09-30T09:47:33;11.63;;;5.25;;
38222;SDS011;24024;51.186;6.458;2023-09-30T09:50:02;10.63;;;5.38;;
38222;SDS011;24024;51.186;6.458;2023-09-30T09:52:33;14.63;;;6.13;;
38222;SDS011;24024;51.186;6.458;2023-09-30T09:55:01;14.30;;;6.15;;
38222;SDS011;24024;51.186;6.458;2023-09-30T09:57:28;14.30;;;6.22;;
38222;SDS011;24024;51.186;6.458;2023-09-30T09:59:57;12.63;;;5.88;;
38222;SDS011;24024;51.186;6.458;2023-09-30T10:02:26;8.60;;;4.28;;
38222;SDS011;24024;51.186;6.458;2023-09-30T10:04:55;11.98;;;5.03;;
38222;SDS011;24024;51.186;6.458;2023-09-30T10:07:27;11.60;;;4.60;;
38222;SDS011;24024;51.186;6.458;2023-09-30T10:09:57;14.38;;;5.30;;
38222;SDS011;24024;51.186;6.458;2023-09-30T10:12:26;12.32;;;5.38;;
38222;SDS011;24024;51.186;6.458;2023-09-30T10:14:54;15.10;;;6.00;;
38222;SDS011;24024;51.186;6.458;2023-09-30T10:17:22;13.02;;;6.22;;
38222;SDS011;24024;51.186;6.458;2023-09-30T10:20:29;10.93;;;5.07;;
38222;SDS011;24024;51.186;6.458;2023-09-30T10:25:45;11.00;;;4.70;;
38222;SDS011;24024;51.186;6.458;2023-09-30T10:36:27;10.73;;;4.85;;
38222;SDS011;24024;51.186;6.458;2023-09-30T10:38:59;11.43;;;5.00;;
38222;SDS011;24024;51.186;6.458;2023-09-30T10:47:34;11.13;;;3.95;;
38222;SDS011;24024;51.186;6.458;2023-09-30T10:49:54;10.30;;;4.22;;
38222;SDS011;24024;51.186;6.458;2023-09-30T10:52:23;11.05;;;4.07;;
38222;SDS011;24024;51.186;6.458;2023-09-30T10:54:50;7.63;;;3.97;;
38222;SDS011;24024;51.186;6.458;2023-09-30T10:57:27;9.23;;;3.90;;
38222;SDS011;24024;51.186;6.458;2023-09-30T11:00:11;13.70;;;4.93;;
38222;SDS011;24024;51.186;6.458;2023-09-30T11:02:52;13.05;;;6.43;;
38222;SDS011;24024;51.186;6.458;2023-09-30T11:05:19;10.07;;;4.43;;
38222;SDS011;24024;51.186;6.458;2023-09-30T11:08:09;10.90;;;4.57;;
38222;SDS011;24024;51.186;6.458;2023-09-30T11:10:49;10.43;;;4.53;;
38222;SDS011;24024;51.186;6.458;2023-09-30T11:13:17;10.25;;;4.45;;
38222;SDS011;24024;51.186;6.458;2023-09-30T11:15:47;9.43;;;4.35;;
38222;SDS011;24024;51.186;6.458;2023-09-30T11:18:14;8.73;;;3.55;;
38222;SDS011;24024;51.186;6.458;2023-09-30T11:20:42;10.02;;;3.63;;
38222;SDS011;24024;51.186;6.458;2023-09-30T11:23:10;9.45;;;3.42;;
38222;SDS011;24024;51.186;6.458;2023-09-30T11:25:38;10.15;;;4.53;;
38222;SDS011;24024;51.186;6.458;2023-09-30T11:28:15;7.53;;;3.55;;
38222;SDS011;24024;51.186;6.458;2023-09-30T11:30:54;9.23;;;3.72;;
38222;SDS011;24024;51.186;6.458;2023-09-30T11:33:22;9.63;;;3.65;;
38222;SDS011;24024;51.186;6.458;2023-09-30T11:36:02;8.25;;;3.70;;
38222;SDS011;24024;51.186;6.458;2023-09-30T11:38:34;8.02;;;3.30;;
38222;SDS011;24024;51.186;6.458;2023-09-30T11:41:10;8.30;;;3.80;;
38222;SDS011;24024;51.186;6.458;2023-09-30T11:43:37;9.65;;;3.25;;
38222;SDS011;24024;51.186;6.458;2023-09-30T11:48:35;8.32;;;2.85;;
38222;SDS011;24024;51.186;6.458;2023-09-30T11:51:22;9.70;;;2.80;;
38222;SDS011;24024;51.186;6.458;2023-09-30T11:54:06;8.73;;;3.30;;
38222;SDS011;24024;51.186;6.458;2023-09-30T11:56:37;7.97;;;2.53;;
38222;SDS011;24024;51.186;6.458;2023-09-30T11:59:04;6.82;;;2.25;;
38222;SDS011;24024;51.186;6.458;2023-09-30T12:01:31;7.22;;;2.67;;
38222;SDS011;24024;51.186;6.458;2023-09-30T12:03:58;8.57;;;3.40;;
38222;SDS011;24024;51.186;6.458;2023-09-30T12:06:25;10.80;;;3.00;;
38222;SDS011;24024;51.186;6.458;2023-09-30T12:08:52;8.02;;;3.10;;
38222;SDS011;24024;51.186;6.458;2023-09-30T12:11:20;8.90;;;3.35;;
38222;SDS011;24024;51.186;6.458;2023-09-30T12:13:50;8.68;;;4.30;;
38222;SDS011;24024;51.186;6.458;2023-09-30T12:16:17;8.63;;;4.05;;
38222;SDS011;24024;51.186;6.458;2023-09-30T12:18:47;9.45;;;3.63;;
38222;SDS011;24024;51.186;6.458;2023-09-30T12:21:16;8.48;;;3.60;;
38222;SDS011;24024;51.186;6.458;2023-09-30T12:23:46;8.60;;;3.65;;
38222;SDS011;24024;51.186;6.458;2023-09-30T12:26:14;8.85;;;3.97;;
38222;SDS011;24024;51.186;6.458;2023-09-30T12:28:46;9.23;;;3.53;;
38222;SDS011;24024;51.186;6.458;2023-09-30T12:31:14;8.20;;;3.50;;
38222;SDS011;24024;51.186;6.458;2023-09-30T12:33:41;9.57;;;4.05;;
38222;SDS011;24024;51.186;6.458;2023-09-30T12:36:10;9.15;;;4.05;;
38222;SDS011;24024;51.186;6.458;2023-09-30T12:38:40;8.60;;;4.10;;
38222;SDS011;24024;51.186;6.458;2023-09-30T12:41:07;8.57;;;3.90;;
38222;SDS011;24024;51.186;6.458;2023-09-30T12:43:36;9.38;;;3.33;;
38222;SDS011;24024;51.186;6.458;2023-09-30T12:46:03;11.05;;;4.15;;
38222;SDS011;24024;51.186;6.458;2023-09-30T12:48:33;10.18;;;3.72;;
38222;SDS011;24024;51.186;6.458;2023-09-30T12:51:00;9.10;;;3.33;;
38222;SDS011;24024;51.186;6.458;2023-09-30T12:53:34;6.10;;;3.10;;
38222;SDS011;24024;51.186;6.458;2023-09-30T12:56:03;8.90;;;3.83;;
38222;SDS011;24024;51.186;6.458;2023-09-30T12:58:31;8.63;;;3.08;;
38222;SDS011;24024;51.186;6.458;2023-09-30T13:01:00;6.13;;;2.75;;
38222;SDS011;24024;51.186;6.458;2023-09-30T13:03:47;6.90;;;2.92;;
38222;SDS011;24024;51.186;6.458;2023-09-30T13:06:15;6.47;;;3.17;;
38222;SDS011;24024;51.186;6.458;2023-09-30T13:08:42;6.15;;;3.33;;
38222;SDS011;24024;51.186;6.458;2023-09-30T13:11:09;7.80;;;3.55;;
38222;SDS011;24024;51.186;6.458;2023-09-30T13:13:37;6.50;;;3.13;;
38222;SDS011;24024;51.186;6.458;2023-09-30T13:16:04;9.15;;;3.38;;
38222;SDS011;24024;51.186;6.458;2023-09-30T13:18:34;7.30;;;2.95;;
38222;SDS011;24024;51.186;6.458;2023-09-30T13:21:00;6.70;;;2.90;;
38222;SDS011;24024;51.186;6.458;2023-09-30T13:23:28;7.97;;;3.10;;
38222;SDS011;24024;51.186;6.458;2023-09-30T13:25:59;7.75;;;2.97;;
38222;SDS011;24024;51.186;6.458;2023-09-30T13:28:27;7.57;;;3.45;;
38222;SDS011;24024;51.186;6.458;2023-09-30T13:30:54;6.80;;;3.30;;
38222;SDS011;24024;51.186;6.458;2023-09-30T13:33:22;6.82;;;3.25;;
38222;SDS011;24024;51.186;6.458;2023-09-30T13:35:50;8.20;;;3.83;;
38222;SDS011;24024;51.186;6.458;2023-09-30T13:38:21;8.90;;;3.47;;
38222;SDS011;24024;51.186;6.458;2023-09-30T13:40:48;7.32;;;3.50;;
38222;SDS011;24024;51.186;6.458;2023-09-30T13:43:18;6.72;;;3.13;;
38222;SDS011;24024;51.186;6.458;2023-09-30T13:45:45;8.10;;;3.35;;
38222;SDS011;24024;51.186;6.458;2023-09-30T13:48:12;6.95;;;3.00;;
38222;SDS011;24024;51.186;6.458;2023-09-30T13:50:39;7.88;;;3.72;;
38222;SDS011;24024;51.186;6.458;2023-09-30T13:53:06;8.65;;;3.20;;
38222;SDS011;24024;51.186;6.458;2023-09-30T13:55:37;7.40;;;3.40;;
38222;SDS011;24024;51.186;6.458;2023-09-30T13:58:04;7.32;;;3.33;;
38222;SDS011;24024;51.186;6.458;2023-09-30T14:00:31;5.50;;;2.75;;
38222;SDS011;24024;51.186;6.458;2023-09-30T14:02:59;7.55;;;3.20;;
38222;SDS011;24024;51.186;6.458;2023-09-30T14:05:26;6.15;;;2.90;;
38222;SDS011;24024;51.186;6.458;2023-09-30T14:07:53;11.23;;;3.00;;
38222;SDS011;24024;51.186;6.458;2023-09-30T14:10:20;10.90;;;5.88;;
38222;SDS011;24024;51.186;6.458;2023-09-30T14:12:47;9.05;;;4.03;;
38222;SDS011;24024;51.186;6.458;2023-09-30T14:15:16;7.90;;;3.53;;
38222;SDS011;24024;51.186;6.458;2023-09-30T14:17:43;7.70;;;3.35;;
38222;SDS011;24024;51.186;6.458;2023-09-30T14:20:11;6.07;;;3.10;;
38222;SDS011;24024;51.186;6.458;2023-09-30T14:22:40;6.68;;;3.53;;
38222;SDS011;24024;51.186;6.458;2023-09-30T14:25:09;9.05;;;3.88;;
38222;SDS011;24024;51.186;6.458;2023-09-30T14:27:37;7.78;;;3.72;;
38222;SDS011;24024;51.186;6.458;2023-09-30T14:30:06;7.32;;;3.92;;
38222;SDS011;24024;51.186;6.458;2023-09-30T14:32:34;9.40;;;3.83;;
38222;SDS011;24024;51.186;6.458;2023-09-30T14:35:01;7.45;;;4.05;;
38222;SDS011;24024;51.186;6.458;2023-09-30T14:37:32;8.48;;;3.63;;
38222;SDS011;24024;51.186;6.458;2023-09-30T14:39:59;6.30;;;3.22;;
38222;SDS011;24024;51.186;6.458;2023-09-30T14:42:25;6.63;;;2.83;;
38222;SDS011;24024;51.186;6.458;2023-09-30T14:44:52;7.35;;;3.22;;
38222;SDS011;24024;51.186;6.458;2023-09-30T14:47:19;8.43;;;3.53;;
38222;SDS011;24024;51.186;6.458;2023-09-30T14:49:46;7.70;;;3.40;;
38222;SDS011;24024;51.186;6.458;2023-09-30T14:52:15;9.27;;;3.72;;
38222;SDS011;24024;51.186;6.458;2023-09-30T14:54:41;8.55;;;3.08;;
38222;SDS011;24024;51.186;6.458;2023-09-30T14:57:08;7.07;;;3.67;;
38222;SDS011;24024;51.186;6.458;2023-09-30T14:59:36;8.98;;;3.55;;
38222;SDS011;24024;51.186;6.458;2023-09-30T15:02:02;8.35;;;3.50;;
38222;SDS011;24024;51.186;6.458;2023-09-30T15:04:30;9.80;;;3.72;;
38222;SDS011;24024;51.186;6.458;2023-09-30T15:06:58;8.90;;;3.38;;